sensor_id;sensor_type;location;lat;lon;timestamp;P1;durP1;ratioP1;P2;durP2;ratioP2
11877;SDS011;5998;42.676;23.268;2023-04-22T00:00:54;13.57;;;10.10;;
11877;SDS011;5998;42.676;23.268;2023-04-22T00:03:20;13.53;;;9.40;;
11877;SDS011;5998;42.676;23.268;2023-04-22T00:05:47;13.70;;;10.10;;
11877;SDS011;5998;42.676;23.268;2023-04-22T00:08:13;15.30;;;10.20;;
11877;SDS011;5998;42.676;23.268;2023-04-22T00:10:40;14.23;;;10.23;;
11877;SDS011;5998;42.676;23.268;2023-04-22T00:13:07;13.07;;;10.50;;
11877;SDS011;5998;42.676;23.268;2023-04-22T00:15:34;12.27;;;9.60;;
11877;SDS011;5998;42.676;23.268;2023-04-22T00:18:00;14.13;;;9.27;;
11877;SDS011;5998;42.676;23.268;2023-04-22T00:20:27;16.83;;;9.30;;
11877;SDS011;5998;42.676;23.268;2023-04-22T00:22:56;13.50;;;9.30;;
11877;SDS011;5998;42.676;23.268;2023-04-22T00:25:22;11.80;;;9.47;;
11877;SDS011;5998;42.676;23.268;2023-04-22T00:27:49;10.97;;;9.10;;
11877;SDS011;5998;42.676;23.268;2023-04-22T00:30:17;11.37;;;8.90;;
11877;SDS011;5998;42.676;23.268;2023-04-22T00:32:43;12.37;;;9.50;;
11877;SDS011;5998;42.676;23.268;2023-04-22T00:35:10;13.00;;;9.63;;
11877;SDS011;5998;42.676;23.268;2023-04-22T00:37:36;13.97;;;9.90;;
11877;SDS011;5998;42.676;23.268;2023-04-22T00:40:03;11.57;;;9.60;;
11877;SDS011;5998;42.676;23.268;2023-04-22T00:42:30;12.47;;;9.70;;
11877;SDS011;5998;42.676;23.268;2023-04-22T00:44:57;12.57;;;9.47;;
11877;SDS011;5998;42.676;23.268;2023-04-22T00:47:25;12.57;;;9.07;;
11877;SDS011;5998;42.676;23.268;2023-04-22T00:49:52;10.90;;;9.00;;
11877;SDS011;5998;42.676;23.268;2023-04-22T00:52:19;11.13;;;9.17;;
11877;SDS011;5998;42.676;23.268;2023-04-22T00:54:45;11.37;;;9.07;;
11877;SDS011;5998;42.676;23.268;2023-04-22T00:57:13;11.33;;;8.87;;
11877;SDS011;5998;42.676;23.268;2023-04-22T00:59:40;10.20;;;9.20;;
11877;SDS011;5998;42.676;23.268;2023-04-22T01:02:07;12.13;;;9.30;;
11877;SDS011;5998;42.676;23.268;2023-04-22T01:04:35;12.73;;;9.73;;
11877;SDS011;5998;42.676;23.268;2023-04-22T01:07:01;13.40;;;9.93;;
11877;SDS011;5998;42.676;23.268;2023-04-22T01:09:28;13.37;;;9.50;;
11877;SDS011;5998;42.676;23.268;2023-04-22T01:11:54;14.17;;;10.03;;
11877;SDS011;5998;42.676;23.268;2023-04-22T01:14:21;31.83;;;10.30;;
11877;SDS011;5998;42.676;23.268;2023-04-22T01:16:48;11.67;;;10.07;;
11877;SDS011;5998;42.676;23.268;2023-04-22T01:19:15;12.60;;;10.00;;
11877;SDS011;5998;42.676;23.268;2023-04-22T01:21:42;14.10;;;9.57;;
11877;SDS011;5998;42.676;23.268;2023-04-22T01:24:11;13.33;;;9.60;;
11877;SDS011;5998;42.676;23.268;2023-04-22T01:26:38;11.53;;;9.57;;
11877;SDS011;5998;42.676;23.268;2023-04-22T01:29:04;14.03;;;9.40;;
11877;SDS011;5998;42.676;23.268;2023-04-22T01:31:31;11.50;;;9.00;;
11877;SDS011;5998;42.676;23.268;2023-04-22T01:33:58;12.57;;;10.80;;
11877;SDS011;5998;42.676;23.268;2023-04-22T01:36:24;10.40;;;8.70;;
11877;SDS011;5998;42.676;23.268;2023-04-22T01:38:51;12.03;;;9.30;;
11877;SDS011;5998;42.676;23.268;2023-04-22T01:41:19;11.40;;;7.77;;
11877;SDS011;5998;42.676;23.268;2023-04-22T01:43:45;11.40;;;8.03;;
11877;SDS011;5998;42.676;23.268;2023-04-22T01:46:11;11.80;;;7.93;;
11877;SDS011;5998;42.676;23.268;2023-04-22T01:48:38;10.97;;;8.17;;
11877;SDS011;5998;42.676;23.268;2023-04-22T01:51:05;12.97;;;8.47;;
11877;SDS011;5998;42.676;23.268;2023-04-22T01:53:31;11.37;;;8.50;;
11877;SDS011;5998;42.676;23.268;2023-04-22T01:55:58;9.33;;;8.20;;
11877;SDS011;5998;42.676;23.268;2023-04-22T01:58:28;10.40;;;7.70;;
11877;SDS011;5998;42.676;23.268;2023-04-22T02:00:55;9.47;;;7.73;;
11877;SDS011;5998;42.676;23.268;2023-04-22T02:03:21;11.53;;;7.93;;
11877;SDS011;5998;42.676;23.268;2023-04-22T02:05:47;10.67;;;8.23;;
11877;SDS011;5998;42.676;23.268;2023-04-22T02:08:14;8.57;;;7.50;;
11877;SDS011;5998;42.676;23.268;2023-04-22T02:10:40;10.87;;;7.60;;
11877;SDS011;5998;42.676;23.268;2023-04-22T02:13:07;17.40;;;9.00;;
11877;SDS011;5998;42.676;23.268;2023-04-22T02:15:35;11.27;;;8.70;;
11877;SDS011;5998;42.676;23.268;2023-04-22T02:18:01;13.03;;;10.43;;
11877;SDS011;5998;42.676;23.268;2023-04-22T02:20:28;15.37;;;9.77;;
11877;SDS011;5998;42.676;23.268;2023-04-22T02:22:54;16.83;;;11.87;;
11877;SDS011;5998;42.676;23.268;2023-04-22T02:25:21;16.47;;;11.40;;
11877;SDS011;5998;42.676;23.268;2023-04-22T02:27:47;18.67;;;12.57;;
11877;SDS011;5998;42.676;23.268;2023-04-22T02:30:13;20.40;;;13.07;;
11877;SDS011;5998;42.676;23.268;2023-04-22T02:32:41;15.00;;;12.70;;
11877;SDS011;5998;42.676;23.268;2023-04-22T02:35:08;15.93;;;13.07;;
11877;SDS011;5998;42.676;23.268;2023-04-22T02:37:35;17.47;;;13.83;;
11877;SDS011;5998;42.676;23.268;2023-04-22T02:40:01;20.00;;;11.80;;
11877;SDS011;5998;42.676;23.268;2023-04-22T02:42:28;15.57;;;11.80;;
11877;SDS011;5998;42.676;23.268;2023-04-22T02:44:55;17.63;;;11.53;;
11877;SDS011;5998;42.676;23.268;2023-04-22T02:47:22;14.47;;;11.77;;
11877;SDS011;5998;42.676;23.268;2023-04-22T02:49:50;16.43;;;12.83;;
11877;SDS011;5998;42.676;23.268;2023-04-22T02:52:16;14.73;;;12.00;;
11877;SDS011;5998;42.676;23.268;2023-04-22T02:54:42;17.73;;;11.23;;
11877;SDS011;5998;42.676;23.268;2023-04-22T02:57:09;13.97;;;11.10;;
11877;SDS011;5998;42.676;23.268;2023-04-22T02:59:36;14.70;;;11.30;;
11877;SDS011;5998;42.676;23.268;2023-04-22T03:02:02;17.20;;;11.13;;
11877;SDS011;5998;42.676;23.268;2023-04-22T03:04:28;17.57;;;11.23;;
11877;SDS011;5998;42.676;23.268;2023-04-22T03:06:57;14.13;;;9.97;;
11877;SDS011;5998;42.676;23.268;2023-04-22T03:09:24;13.20;;;10.43;;
11877;SDS011;5998;42.676;23.268;2023-04-22T03:11:50;13.37;;;10.53;;
11877;SDS011;5998;42.676;23.268;2023-04-22T03:14:17;15.37;;;9.97;;
11877;SDS011;5998;42.676;23.268;2023-04-22T03:16:43;13.73;;;9.73;;
11877;SDS011;5998;42.676;23.268;2023-04-22T03:19:10;18.00;;;13.30;;
11877;SDS011;5998;42.676;23.268;2023-04-22T03:21:36;14.47;;;10.07;;
11877;SDS011;5998;42.676;23.268;2023-04-22T03:24:04;11.70;;;10.03;;
11877;SDS011;5998;42.676;23.268;2023-04-22T03:26:31;12.63;;;9.43;;
11877;SDS011;5998;42.676;23.268;2023-04-22T03:28:57;13.33;;;9.50;;
11877;SDS011;5998;42.676;23.268;2023-04-22T03:31:24;14.67;;;9.40;;
11877;SDS011;5998;42.676;23.268;2023-04-22T03:33:50;15.33;;;9.93;;
11877;SDS011;5998;42.676;23.268;2023-04-22T03:36:17;13.17;;;9.17;;
11877;SDS011;5998;42.676;23.268;2023-04-22T03:38:43;12.03;;;9.30;;
11877;SDS011;5998;42.676;23.268;2023-04-22T03:41:11;10.57;;;9.30;;
11877;SDS011;5998;42.676;23.268;2023-04-22T03:43:37;13.30;;;9.33;;
11877;SDS011;5998;42.676;23.268;2023-04-22T03:46:04;14.90;;;10.30;;
11877;SDS011;5998;42.676;23.268;2023-04-22T03:48:30;12.10;;;9.43;;
11877;SDS011;5998;42.676;23.268;2023-04-22T03:50:59;12.13;;;9.53;;
11877;SDS011;5998;42.676;23.268;2023-04-22T03:53:26;11.80;;;9.50;;
11877;SDS011;5998;42.676;23.268;2023-04-22T03:55:52;10.40;;;8.87;;
11877;SDS011;5998;42.676;23.268;2023-04-22T03:58:20;9.87;;;8.43;;
11877;SDS011;5998;42.676;23.268;2023-04-22T04:00:47;10.73;;;8.53;;
11877;SDS011;5998;42.676;23.268;2023-04-22T04:03:13;24.93;;;9.80;;
11877;SDS011;5998;42.676;23.268;2023-04-22T04:05:40;13.30;;;9.27;;
11877;SDS011;5998;42.676;23.268;2023-04-22T04:08:06;10.40;;;8.60;;
11877;SDS011;5998;42.676;23.268;2023-04-22T04:10:32;18.40;;;8.67;;
11877;SDS011;5998;42.676;23.268;2023-04-22T04:12:59;9.67;;;8.67;;
11877;SDS011;5998;42.676;23.268;2023-04-22T04:15:27;9.77;;;8.13;;
11877;SDS011;5998;42.676;23.268;2023-04-22T04:17:54;13.50;;;9.47;;
11877;SDS011;5998;42.676;23.268;2023-04-22T04:20:21;13.23;;;9.50;;
11877;SDS011;5998;42.676;23.268;2023-04-22T04:22:47;15.63;;;10.53;;
11877;SDS011;5998;42.676;23.268;2023-04-22T04:25:14;11.90;;;9.13;;
11877;SDS011;5998;42.676;23.268;2023-04-22T04:27:42;13.80;;;9.97;;
11877;SDS011;5998;42.676;23.268;2023-04-22T04:30:09;16.00;;;10.63;;
11877;SDS011;5998;42.676;23.268;2023-04-22T04:32:37;17.40;;;11.73;;
11877;SDS011;5998;42.676;23.268;2023-04-22T04:35:04;15.70;;;11.80;;
11877;SDS011;5998;42.676;23.268;2023-04-22T04:37:31;15.40;;;11.80;;
11877;SDS011;5998;42.676;23.268;2023-04-22T04:39:57;17.63;;;11.23;;
11877;SDS011;5998;42.676;23.268;2023-04-22T04:42:24;14.27;;;11.87;;
11877;SDS011;5998;42.676;23.268;2023-04-22T04:44:50;18.43;;;12.53;;
11877;SDS011;5998;42.676;23.268;2023-04-22T04:47:17;24.40;;;19.17;;
11877;SDS011;5998;42.676;23.268;2023-04-22T04:49:45;19.53;;;13.97;;
11877;SDS011;5998;42.676;23.268;2023-04-22T04:52:11;17.77;;;14.27;;
11877;SDS011;5998;42.676;23.268;2023-04-22T04:54:38;13.50;;;11.97;;
11877;SDS011;5998;42.676;23.268;2023-04-22T04:57:04;15.27;;;12.27;;
11877;SDS011;5998;42.676;23.268;2023-04-22T04:59:31;19.43;;;14.20;;
11877;SDS011;5998;42.676;23.268;2023-04-22T05:01:57;17.00;;;13.73;;
11877;SDS011;5998;42.676;23.268;2023-04-22T05:04:24;16.17;;;13.07;;
11877;SDS011;5998;42.676;23.268;2023-04-22T05:06:52;18.23;;;12.67;;
11877;SDS011;5998;42.676;23.268;2023-04-22T05:09:18;17.03;;;12.60;;
11877;SDS011;5998;42.676;23.268;2023-04-22T05:11:45;19.53;;;14.03;;
11877;SDS011;5998;42.676;23.268;2023-04-22T05:14:11;17.10;;;12.37;;
11877;SDS011;5998;42.676;23.268;2023-04-22T05:16:37;14.70;;;11.37;;
11877;SDS011;5998;42.676;23.268;2023-04-22T05:19:04;18.23;;;12.70;;
11877;SDS011;5998;42.676;23.268;2023-04-22T05:21:30;16.13;;;10.70;;
11877;SDS011;5998;42.676;23.268;2023-04-22T05:23:58;12.90;;;9.87;;
11877;SDS011;5998;42.676;23.268;2023-04-22T05:26:25;13.27;;;10.47;;
11877;SDS011;5998;42.676;23.268;2023-04-22T05:28:52;13.60;;;10.37;;
11877;SDS011;5998;42.676;23.268;2023-04-22T05:31:18;11.83;;;9.93;;
11877;SDS011;5998;42.676;23.268;2023-04-22T05:33:45;14.33;;;9.83;;
11877;SDS011;5998;42.676;23.268;2023-04-22T05:36:11;13.57;;;10.33;;
11877;SDS011;5998;42.676;23.268;2023-04-22T05:38:38;12.40;;;10.00;;
11877;SDS011;5998;42.676;23.268;2023-04-22T05:41:05;13.27;;;9.90;;
11877;SDS011;5998;42.676;23.268;2023-04-22T05:43:32;15.63;;;11.00;;
11877;SDS011;5998;42.676;23.268;2023-04-22T05:45:59;11.97;;;10.70;;
11877;SDS011;5998;42.676;23.268;2023-04-22T05:48:25;13.00;;;11.47;;
11877;SDS011;5998;42.676;23.268;2023-04-22T05:50:52;11.97;;;10.53;;
11877;SDS011;5998;42.676;23.268;2023-04-22T05:53:19;12.37;;;11.07;;
11877;SDS011;5998;42.676;23.268;2023-04-22T05:55:45;16.73;;;11.17;;
11877;SDS011;5998;42.676;23.268;2023-04-22T05:58:13;13.63;;;9.67;;
11877;SDS011;5998;42.676;23.268;2023-04-22T06:00:39;11.30;;;8.50;;
11877;SDS011;5998;42.676;23.268;2023-04-22T06:03:06;11.23;;;8.80;;
11877;SDS011;5998;42.676;23.268;2023-04-22T06:05:32;11.93;;;8.67;;
11877;SDS011;5998;42.676;23.268;2023-04-22T06:07:59;10.23;;;9.13;;
11877;SDS011;5998;42.676;23.268;2023-04-22T06:10:25;11.93;;;9.57;;
11877;SDS011;5998;42.676;23.268;2023-04-22T06:12:52;12.57;;;10.03;;
11877;SDS011;5998;42.676;23.268;2023-04-22T06:15:19;12.17;;;10.77;;
11877;SDS011;5998;42.676;23.268;2023-04-22T06:17:46;10.43;;;9.37;;
11877;SDS011;5998;42.676;23.268;2023-04-22T06:20:13;14.80;;;10.00;;
11877;SDS011;5998;42.676;23.268;2023-04-22T06:22:39;13.97;;;9.97;;
11877;SDS011;5998;42.676;23.268;2023-04-22T06:25:06;13.40;;;9.67;;
11877;SDS011;5998;42.676;23.268;2023-04-22T06:27:32;11.33;;;9.73;;
11877;SDS011;5998;42.676;23.268;2023-04-22T06:29:59;11.53;;;9.77;;
11877;SDS011;5998;42.676;23.268;2023-04-22T06:32:27;14.03;;;9.53;;
11877;SDS011;5998;42.676;23.268;2023-04-22T06:34:53;10.73;;;8.33;;
11877;SDS011;5998;42.676;23.268;2023-04-22T06:37:20;13.03;;;9.83;;
11877;SDS011;5998;42.676;23.268;2023-04-22T06:39:46;13.00;;;8.57;;
11877;SDS011;5998;42.676;23.268;2023-04-22T06:42:13;10.80;;;8.90;;
11877;SDS011;5998;42.676;23.268;2023-04-22T06:44:39;10.37;;;8.37;;
11877;SDS011;5998;42.676;23.268;2023-04-22T06:47:06;11.77;;;10.30;;
11877;SDS011;5998;42.676;23.268;2023-04-22T06:49:33;11.93;;;9.37;;
11877;SDS011;5998;42.676;23.268;2023-04-22T06:52:02;10.47;;;6.27;;
11877;SDS011;5998;42.676;23.268;2023-04-22T06:54:28;14.40;;;9.60;;
11877;SDS011;5998;42.676;23.268;2023-04-22T06:56:56;12.90;;;11.20;;
11877;SDS011;5998;42.676;23.268;2023-04-22T06:59:22;10.73;;;8.60;;
11877;SDS011;5998;42.676;23.268;2023-04-22T07:01:49;10.03;;;6.90;;
11877;SDS011;5998;42.676;23.268;2023-04-22T07:04:15;15.17;;;10.37;;
11877;SDS011;5998;42.676;23.268;2023-04-22T07:06:43;14.10;;;9.77;;
11877;SDS011;5998;42.676;23.268;2023-04-22T07:09:10;12.77;;;10.07;;
11877;SDS011;5998;42.676;23.268;2023-04-22T07:11:36;11.73;;;9.63;;
11877;SDS011;5998;42.676;23.268;2023-04-22T07:14:03;11.80;;;9.00;;
11877;SDS011;5998;42.676;23.268;2023-04-22T07:16:29;9.10;;;7.60;;
11877;SDS011;5998;42.676;23.268;2023-04-22T07:18:55;9.07;;;8.17;;
11877;SDS011;5998;42.676;23.268;2023-04-22T07:21:23;9.83;;;7.93;;
11877;SDS011;5998;42.676;23.268;2023-04-22T07:23:51;8.30;;;7.00;;
11877;SDS011;5998;42.676;23.268;2023-04-22T07:26:18;8.47;;;7.57;;
11877;SDS011;5998;42.676;23.268;2023-04-22T07:28:45;9.23;;;7.80;;
11877;SDS011;5998;42.676;23.268;2023-04-22T07:31:11;10.47;;;8.30;;
11877;SDS011;5998;42.676;23.268;2023-04-22T07:33:38;9.43;;;7.23;;
11877;SDS011;5998;42.676;23.268;2023-04-22T07:36:04;8.30;;;6.80;;
11877;SDS011;5998;42.676;23.268;2023-04-22T07:38:31;6.30;;;5.70;;
11877;SDS011;5998;42.676;23.268;2023-04-22T07:40:59;7.20;;;6.50;;
11877;SDS011;5998;42.676;23.268;2023-04-22T07:43:25;9.37;;;6.53;;
11877;SDS011;5998;42.676;23.268;2023-04-22T07:45:52;8.63;;;6.30;;
11877;SDS011;5998;42.676;23.268;2023-04-22T07:48:18;7.17;;;6.47;;
11877;SDS011;5998;42.676;23.268;2023-04-22T07:50:45;5.57;;;5.07;;
11877;SDS011;5998;42.676;23.268;2023-04-22T07:53:11;7.40;;;5.00;;
11877;SDS011;5998;42.676;23.268;2023-04-22T07:55:39;6.93;;;5.97;;
11877;SDS011;5998;42.676;23.268;2023-04-22T07:58:07;9.43;;;5.20;;
11877;SDS011;5998;42.676;23.268;2023-04-22T08:00:33;5.27;;;4.67;;
11877;SDS011;5998;42.676;23.268;2023-04-22T08:03:00;6.10;;;4.83;;
11877;SDS011;5998;42.676;23.268;2023-04-22T08:05:26;7.03;;;4.53;;
11877;SDS011;5998;42.676;23.268;2023-04-22T08:07:53;6.43;;;5.10;;
11877;SDS011;5998;42.676;23.268;2023-04-22T08:10:19;12.47;;;5.43;;
11877;SDS011;5998;42.676;23.268;2023-04-22T08:12:46;7.23;;;4.67;;
11877;SDS011;5998;42.676;23.268;2023-04-22T08:15:13;7.27;;;5.53;;
11877;SDS011;5998;42.676;23.268;2023-04-22T08:17:40;11.23;;;6.90;;
11877;SDS011;5998;42.676;23.268;2023-04-22T08:20:07;7.07;;;4.53;;
11877;SDS011;5998;42.676;23.268;2023-04-22T08:22:33;5.43;;;4.20;;
11877;SDS011;5998;42.676;23.268;2023-04-22T08:25:00;5.47;;;4.23;;
11877;SDS011;5998;42.676;23.268;2023-04-22T08:27:27;6.90;;;4.90;;
11877;SDS011;5998;42.676;23.268;2023-04-22T08:29:53;6.70;;;4.27;;
11877;SDS011;5998;42.676;23.268;2023-04-22T08:32:21;6.70;;;5.00;;
11877;SDS011;5998;42.676;23.268;2023-04-22T08:34:50;10.43;;;5.67;;
11877;SDS011;5998;42.676;23.268;2023-04-22T08:37:16;15.97;;;5.60;;
11877;SDS011;5998;42.676;23.268;2023-04-22T08:39:43;5.90;;;5.13;;
11877;SDS011;5998;42.676;23.268;2023-04-22T08:42:09;9.43;;;5.17;;
11877;SDS011;5998;42.676;23.268;2023-04-22T08:44:37;11.77;;;4.90;;
11877;SDS011;5998;42.676;23.268;2023-04-22T08:47:04;8.30;;;5.33;;
11877;SDS011;5998;42.676;23.268;2023-04-22T08:49:32;8.10;;;4.80;;
11877;SDS011;5998;42.676;23.268;2023-04-22T08:51:59;5.67;;;4.90;;
11877;SDS011;5998;42.676;23.268;2023-04-22T08:54:26;6.17;;;4.80;;
11877;SDS011;5998;42.676;23.268;2023-04-22T08:56:52;8.20;;;5.20;;
11877;SDS011;5998;42.676;23.268;2023-04-22T08:59:19;7.50;;;4.50;;
11877;SDS011;5998;42.676;23.268;2023-04-22T09:01:48;8.40;;;3.73;;
11877;SDS011;5998;42.676;23.268;2023-04-22T09:04:15;7.93;;;4.00;;
11877;SDS011;5998;42.676;23.268;2023-04-22T09:06:44;5.40;;;4.30;;
11877;SDS011;5998;42.676;23.268;2023-04-22T09:09:10;4.77;;;4.00;;
11877;SDS011;5998;42.676;23.268;2023-04-22T09:11:37;6.43;;;4.50;;
11877;SDS011;5998;42.676;23.268;2023-04-22T09:14:03;7.83;;;4.00;;
11877;SDS011;5998;42.676;23.268;2023-04-22T09:16:30;5.13;;;4.20;;
11877;SDS011;5998;42.676;23.268;2023-04-22T09:18:57;5.33;;;4.00;;
11877;SDS011;5998;42.676;23.268;2023-04-22T09:21:24;3.87;;;3.57;;
11877;SDS011;5998;42.676;23.268;2023-04-22T09:23:53;6.50;;;4.10;;
11877;SDS011;5998;42.676;23.268;2023-04-22T09:26:20;5.57;;;3.67;;
11877;SDS011;5998;42.676;23.268;2023-04-22T09:28:48;5.13;;;3.83;;
11877;SDS011;5998;42.676;23.268;2023-04-22T09:31:15;9.90;;;4.13;;
11877;SDS011;5998;42.676;23.268;2023-04-22T09:33:45;6.07;;;3.70;;
11877;SDS011;5998;42.676;23.268;2023-04-22T09:36:12;5.50;;;3.80;;
11877;SDS011;5998;42.676;23.268;2023-04-22T09:38:38;6.13;;;3.70;;
11877;SDS011;5998;42.676;23.268;2023-04-22T09:41:08;7.13;;;3.67;;
11877;SDS011;5998;42.676;23.268;2023-04-22T09:43:36;7.23;;;4.50;;
11877;SDS011;5998;42.676;23.268;2023-04-22T09:46:03;5.73;;;3.63;;
11877;SDS011;5998;42.676;23.268;2023-04-22T09:48:29;5.20;;;4.40;;
11877;SDS011;5998;42.676;23.268;2023-04-22T09:50:56;9.43;;;4.57;;
11877;SDS011;5998;42.676;23.268;2023-04-22T09:53:23;4.10;;;3.70;;
11877;SDS011;5998;42.676;23.268;2023-04-22T09:55:51;4.87;;;4.27;;
11877;SDS011;5998;42.676;23.268;2023-04-22T09:58:20;6.27;;;3.87;;
11877;SDS011;5998;42.676;23.268;2023-04-22T10:00:48;7.97;;;4.13;;
11877;SDS011;5998;42.676;23.268;2023-04-22T10:03:15;7.20;;;4.23;;
11877;SDS011;5998;42.676;23.268;2023-04-22T10:05:41;7.47;;;3.50;;
11877;SDS011;5998;42.676;23.268;2023-04-22T10:08:09;3.80;;;2.90;;
11877;SDS011;5998;42.676;23.268;2023-04-22T10:10:36;3.80;;;3.23;;
11877;SDS011;5998;42.676;23.268;2023-04-22T10:13:03;5.07;;;3.30;;
11877;SDS011;5998;42.676;23.268;2023-04-22T10:15:32;15.80;;;3.93;;
11877;SDS011;5998;42.676;23.268;2023-04-22T10:17:59;6.13;;;3.53;;
11877;SDS011;5998;42.676;23.268;2023-04-22T10:20:27;4.27;;;2.70;;
11877;SDS011;5998;42.676;23.268;2023-04-22T10:22:54;3.30;;;2.97;;
11877;SDS011;5998;42.676;23.268;2023-04-22T10:25:21;4.73;;;3.30;;
11877;SDS011;5998;42.676;23.268;2023-04-22T10:27:51;6.00;;;2.67;;
11877;SDS011;5998;42.676;23.268;2023-04-22T10:30:25;6.80;;;2.93;;
11877;SDS011;5998;42.676;23.268;2023-04-22T10:32:53;3.47;;;2.73;;
11877;SDS011;5998;42.676;23.268;2023-04-22T10:35:25;2.50;;;2.30;;
11877;SDS011;5998;42.676;23.268;2023-04-22T10:37:51;3.70;;;2.70;;
11877;SDS011;5998;42.676;23.268;2023-04-22T10:40:18;5.37;;;2.63;;
11877;SDS011;5998;42.676;23.268;2023-04-22T10:42:48;5.47;;;2.63;;
11877;SDS011;5998;42.676;23.268;2023-04-22T10:45:15;4.73;;;2.53;;
11877;SDS011;5998;42.676;23.268;2023-04-22T10:47:41;7.37;;;2.90;;
11877;SDS011;5998;42.676;23.268;2023-04-22T10:50:13;4.57;;;2.37;;
11877;SDS011;5998;42.676;23.268;2023-04-22T10:52:41;6.77;;;2.40;;
11877;SDS011;5998;42.676;23.268;2023-04-22T10:55:08;2.77;;;2.33;;
11877;SDS011;5998;42.676;23.268;2023-04-22T10:57:36;2.90;;;2.50;;
11877;SDS011;5998;42.676;23.268;2023-04-22T11:00:17;12.67;;;3.07;;
11877;SDS011;5998;42.676;23.268;2023-04-22T11:02:44;2.63;;;2.43;;
11877;SDS011;5998;42.676;23.268;2023-04-22T11:05:19;3.57;;;2.50;;
11877;SDS011;5998;42.676;23.268;2023-04-22T11:07:46;6.70;;;2.87;;
11877;SDS011;5998;42.676;23.268;2023-04-22T11:12:54;3.13;;;2.53;;
11877;SDS011;5998;42.676;23.268;2023-04-22T11:15:22;6.13;;;2.87;;
11877;SDS011;5998;42.676;23.268;2023-04-22T11:17:49;5.67;;;2.97;;
11877;SDS011;5998;42.676;23.268;2023-04-22T11:20:15;12.93;;;3.13;;
11877;SDS011;5998;42.676;23.268;2023-04-22T11:22:44;6.87;;;2.40;;
11877;SDS011;5998;42.676;23.268;2023-04-22T11:25:11;5.43;;;2.83;;
11877;SDS011;5998;42.676;23.268;2023-04-22T11:27:37;3.23;;;2.50;;
11877;SDS011;5998;42.676;23.268;2023-04-22T11:30:05;2.73;;;2.30;;
11877;SDS011;5998;42.676;23.268;2023-04-22T11:32:32;1.63;;;1.53;;
11877;SDS011;5998;42.676;23.268;2023-04-22T11:35:01;2.13;;;1.93;;
11877;SDS011;5998;42.676;23.268;2023-04-22T11:37:28;4.17;;;2.20;;
11877;SDS011;5998;42.676;23.268;2023-04-22T11:39:59;6.10;;;1.70;;
11877;SDS011;5998;42.676;23.268;2023-04-22T11:42:25;4.37;;;2.53;;
11877;SDS011;5998;42.676;23.268;2023-04-22T11:44:52;5.33;;;2.00;;
11877;SDS011;5998;42.676;23.268;2023-04-22T11:47:18;3.80;;;2.20;;
11877;SDS011;5998;42.676;23.268;2023-04-22T11:49:53;6.67;;;2.10;;
11877;SDS011;5998;42.676;23.268;2023-04-22T11:52:19;2.33;;;1.80;;
11877;SDS011;5998;42.676;23.268;2023-04-22T11:54:46;8.07;;;2.40;;
11877;SDS011;5998;42.676;23.268;2023-04-22T11:57:14;4.77;;;2.57;;
11877;SDS011;5998;42.676;23.268;2023-04-22T11:59:41;2.83;;;1.63;;
11877;SDS011;5998;42.676;23.268;2023-04-22T12:02:08;2.50;;;2.30;;
11877;SDS011;5998;42.676;23.268;2023-04-22T12:04:35;5.73;;;3.17;;
11877;SDS011;5998;42.676;23.268;2023-04-22T12:07:02;5.67;;;2.17;;
11877;SDS011;5998;42.676;23.268;2023-04-22T12:09:29;2.67;;;2.30;;
11877;SDS011;5998;42.676;23.268;2023-04-22T12:11:55;3.23;;;2.47;;
11877;SDS011;5998;42.676;23.268;2023-04-22T12:14:28;4.30;;;2.40;;
11877;SDS011;5998;42.676;23.268;2023-04-22T12:16:56;3.33;;;2.43;;
11877;SDS011;5998;42.676;23.268;2023-04-22T12:19:24;3.60;;;2.33;;
11877;SDS011;5998;42.676;23.268;2023-04-22T12:21:53;4.37;;;1.90;;
11877;SDS011;5998;42.676;23.268;2023-04-22T12:24:20;3.70;;;2.47;;
11877;SDS011;5998;42.676;23.268;2023-04-22T12:26:52;2.87;;;2.10;;
11877;SDS011;5998;42.676;23.268;2023-04-22T12:29:25;2.80;;;2.13;;
11877;SDS011;5998;42.676;23.268;2023-04-22T12:31:53;2.17;;;1.90;;
11877;SDS011;5998;42.676;23.268;2023-04-22T12:34:19;5.13;;;2.20;;
11877;SDS011;5998;42.676;23.268;2023-04-22T12:36:46;2.57;;;1.90;;
11877;SDS011;5998;42.676;23.268;2023-04-22T12:39:12;4.60;;;2.63;;
11877;SDS011;5998;42.676;23.268;2023-04-22T12:41:39;2.20;;;2.00;;
11877;SDS011;5998;42.676;23.268;2023-04-22T12:44:06;2.83;;;2.60;;
11877;SDS011;5998;42.676;23.268;2023-04-22T12:46:33;2.13;;;2.03;;
11877;SDS011;5998;42.676;23.268;2023-04-22T12:49:01;1.60;;;1.50;;
11877;SDS011;5998;42.676;23.268;2023-04-22T12:51:27;4.30;;;2.17;;
11877;SDS011;5998;42.676;23.268;2023-04-22T12:53:54;2.27;;;1.80;;
11877;SDS011;5998;42.676;23.268;2023-04-22T12:56:20;1.90;;;1.77;;
11877;SDS011;5998;42.676;23.268;2023-04-22T12:58:47;2.13;;;1.90;;
11877;SDS011;5998;42.676;23.268;2023-04-22T13:01:13;2.97;;;1.93;;
11877;SDS011;5998;42.676;23.268;2023-04-22T13:03:40;4.50;;;2.20;;
11877;SDS011;5998;42.676;23.268;2023-04-22T13:06:07;4.10;;;2.00;;
11877;SDS011;5998;42.676;23.268;2023-04-22T13:08:34;2.50;;;2.20;;
11877;SDS011;5998;42.676;23.268;2023-04-22T13:11:00;1.83;;;1.70;;
11877;SDS011;5998;42.676;23.268;2023-04-22T13:13:27;2.47;;;1.60;;
11877;SDS011;5998;42.676;23.268;2023-04-22T13:15:54;2.93;;;2.50;;
11877;SDS011;5998;42.676;23.268;2023-04-22T13:18:21;3.30;;;2.30;;
11877;SDS011;5998;42.676;23.268;2023-04-22T13:20:48;2.77;;;2.40;;
11877;SDS011;5998;42.676;23.268;2023-04-22T13:23:16;3.70;;;2.70;;
11877;SDS011;5998;42.676;23.268;2023-04-22T13:25:43;3.77;;;2.40;;
11877;SDS011;5998;42.676;23.268;2023-04-22T13:28:10;2.30;;;1.97;;
11877;SDS011;5998;42.676;23.268;2023-04-22T13:30:36;3.03;;;2.17;;
11877;SDS011;5998;42.676;23.268;2023-04-22T13:33:03;2.70;;;2.20;;
11877;SDS011;5998;42.676;23.268;2023-04-22T13:35:29;2.30;;;2.10;;
11877;SDS011;5998;42.676;23.268;2023-04-22T13:37:56;2.23;;;1.87;;
11877;SDS011;5998;42.676;23.268;2023-04-22T13:40:24;2.27;;;2.07;;
11877;SDS011;5998;42.676;23.268;2023-04-22T13:42:51;2.07;;;1.83;;
11877;SDS011;5998;42.676;23.268;2023-04-22T13:45:17;1.97;;;1.73;;
11877;SDS011;5998;42.676;23.268;2023-04-22T13:47:44;2.70;;;1.97;;
11877;SDS011;5998;42.676;23.268;2023-04-22T13:50:11;2.70;;;1.87;;
11877;SDS011;5998;42.676;23.268;2023-04-22T13:52:37;1.80;;;1.70;;
11877;SDS011;5998;42.676;23.268;2023-04-22T13:55:04;4.27;;;1.90;;
11877;SDS011;5998;42.676;23.268;2023-04-22T13:57:32;2.93;;;1.77;;
11877;SDS011;5998;42.676;23.268;2023-04-22T13:59:58;2.50;;;1.90;;
11877;SDS011;5998;42.676;23.268;2023-04-22T14:02:25;2.57;;;1.57;;
11877;SDS011;5998;42.676;23.268;2023-04-22T14:04:51;2.83;;;2.00;;
11877;SDS011;5998;42.676;23.268;2023-04-22T14:07:18;2.43;;;1.90;;
11877;SDS011;5998;42.676;23.268;2023-04-22T14:09:44;1.80;;;1.70;;
11877;SDS011;5998;42.676;23.268;2023-04-22T14:12:11;2.63;;;1.80;;
11877;SDS011;5998;42.676;23.268;2023-04-22T14:14:38;4.20;;;1.83;;
11877;SDS011;5998;42.676;23.268;2023-04-22T14:17:05;2.77;;;2.10;;
11877;SDS011;5998;42.676;23.268;2023-04-22T14:19:32;2.57;;;2.23;;
11877;SDS011;5998;42.676;23.268;2023-04-22T14:22:01;4.37;;;2.10;;
11877;SDS011;5998;42.676;23.268;2023-04-22T14:24:28;6.27;;;2.23;;
11877;SDS011;5998;42.676;23.268;2023-04-22T14:26:54;2.63;;;2.20;;
11877;SDS011;5998;42.676;23.268;2023-04-22T14:29:23;2.93;;;2.33;;
11877;SDS011;5998;42.676;23.268;2023-04-22T14:31:51;2.50;;;2.10;;
11877;SDS011;5998;42.676;23.268;2023-04-22T14:34:18;4.30;;;2.40;;
11877;SDS011;5998;42.676;23.268;2023-04-22T14:36:44;5.87;;;4.17;;
11877;SDS011;5998;42.676;23.268;2023-04-22T14:39:11;3.47;;;2.27;;